Terminal Aerodrome Forecast
Issued by NWS

Home | Current Version | Previous Version | Graphics & Text | Print | Product List | Glossary On
Versions: 1 2 3 4 5 6 7 8 9 10 11 12
456
FTUS45 KVEF 081720
TAFDAG
TAF
KDAG 081720Z 0818/0918 VRB05KT P6SM SKC
     FM081900 07007KT P6SM SKC
     FM090200 VRB05KT P6SM SKC
     FM090700 27006KT P6SM SKC=

USA.gov is the U.S. government's official web portal to all federal, state and local government web resources and services.